Time;durP1;ratioP1;P1;durP2;ratioP2;P2;SDS_P1;SDS_P2;PMS_P1;PMS_P2;Temp;Humidity;BMP_temperature;BMP_pressure;BME280_temperature;BME280_humidity;BME280_pressure;Samples;Min_cycle;Max_cycle;Signal;HPM_P1;HPM_P2
2023/10/17 00:01:44;;;;;;;;;;;;;;;;;;109257;1252;59819;-79
2023/10/17 00:06:45;;;;;;;;;;;;;;;;;;109287;1253;59766;-79
2023/10/17 00:09:21;;;;;;;;;;;;;;;;;;109276;1252;60117;-78
2023/10/17 00:14:19;;;;;;;;;;;;;;;;;;109271;1252;60425;-79
2023/10/17 00:16:46;;;;;;;;;;;;;;;;;;109276;1253;60601;-79
2023/10/17 00:19:16;;;;;;;;;;;;;;;;;;109280;1252;59764;-79
2023/10/17 00:21:42;;;;;;;;;;;;;;;;;;109257;1252;62556;-79
2023/10/17 00:24:09;;;;;;;;;;;;;;;;;;109194;1252;60238;-79
2023/10/17 00:26:35;;;;;;;;;;;;;;;;;;109176;1253;60466;-79
2023/10/17 00:29:05;;;;;;;;;;;;;;;;;;109245;1252;60302;-79
2023/10/17 00:31:31;;;;;;;;;;;;;;;;;;109309;1252;60527;-79
2023/10/17 00:33:57;;;;;;;;;;;;;;;;;;109344;1252;59915;-79
2023/10/17 00:36:24;;;;;;;;;;;;;;;;;;109450;1254;59740;-78
2023/10/17 00:38:51;;;;;;;;;;;;;;;;;;109304;1251;60030;-79
2023/10/17 00:44:04;;;;;;;;;;;;;;;;;;109099;1253;59875;-79
2023/10/17 00:46:30;;;;;;;;;;;;;;;;;;109322;1252;60279;-79
2023/10/17 00:48:56;;;;;;;;;;;;;;;;;;109308;1253;60449;-79
2023/10/17 00:51:22;;;;;;;;;;;;;;;;;;109267;1252;60427;-79
2023/10/17 00:53:49;;;;;;;;;;;;;;;;;;109240;1252;60536;-79
2023/10/17 00:56:15;;;;;;;;;;;;;;;;;;109265;1252;60459;-78
2023/10/17 00:58:44;;;;;;;;;;;;;;;;;;109295;1252;60414;-79
2023/10/17 01:01:20;;;;;;;;;;;;;;;;;;109324;1254;59769;-79
2023/10/17 01:03:48;;;;;;;;;;;;;;;;;;109266;1253;60616;-79
2023/10/17 01:06:24;;;;;;;;;;;;;;;;;;109272;1253;60392;-79
2023/10/17 01:08:51;;;;;;;;;;;;;;;;;;109247;1253;60628;-79
2023/10/17 01:11:20;;;;;;;;;;;;;;;;;;109088;1253;155638;-79
2023/10/17 01:13:47;;;;;;;;;;;;;;;;;;109202;1253;60475;-80
2023/10/17 01:16:16;;;;;;;;;;;;;;;;;;109268;1252;59821;-79
2023/10/17 01:18:45;;;;;;;;;;;;;;;;;;109273;1253;60516;-79
2023/10/17 01:21:12;;;;;;;;;;;;;;;;;;109255;1253;60478;-79
2023/10/17 01:23:38;;;;;;;;;;;;;;;;;;109292;1253;60001;-79
2023/10/17 01:26:08;;;;;;;;;;;;;;;;;;109290;1253;59854;-79
2023/10/17 01:28:35;;;;;;;;;;;;;;;;;;109288;1252;60137;-79
2023/10/17 01:31:03;;;;;;;;;;;;;;;;;;109323;1255;59994;-79
2023/10/17 01:33:30;;;;;;;;;;;;;;;;;;109287;1252;60097;-79
2023/10/17 01:35:57;;;;;;;;;;;;;;;;;;109262;1255;59773;-79
2023/10/17 01:38:26;;;;;;;;;;;;;;;;;;109291;1253;60943;-79
2023/10/17 01:40:53;;;;;;;;;;;;;;;;;;109256;1253;60313;-79
2023/10/17 01:43:20;;;;;;;;;;;;;;;;;;109247;1252;60485;-79
2023/10/17 01:45:48;;;;;;;;;;;;;;;;;;109267;1252;60532;-79
2023/10/17 01:48:14;;;;;;;;;;;;;;;;;;109350;1254;63728;-79
2023/10/17 01:50:41;;;;;;;;;;;;;;;;;;109319;1254;59962;-79
2023/10/17 01:53:12;;;;;;;;;;;;;;;;;;109317;1251;59821;-79
2023/10/17 01:55:39;;;;;;;;;;;;;;;;;;109355;1251;60185;-79
2023/10/17 01:58:07;;;;;;;;;;;;;;;;;;109338;1251;59762;-79
2023/10/17 02:03:00;;;;;;;;;;;;;;;;;;109330;1255;60514;-79
2023/10/17 02:05:26;;;;;;;;;;;;;;;;;;109300;1252;59750;-79
2023/10/17 02:07:56;;;;;;;;;;;;;;;;;;109242;1253;59923;-80
2023/10/17 02:10:24;;;;;;;;;;;;;;;;;;109280;1251;60163;-79
2023/10/17 02:12:51;;;;;;;;;;;;;;;;;;109273;1253;62531;-79
2023/10/17 02:15:19;;;;;;;;;;;;;;;;;;109292;1253;60553;-78
2023/10/17 02:17:46;;;;;;;;;;;;;;;;;;109253;1252;60302;-79
2023/10/17 02:22:54;;;;;;;;;;;;;;;;;;109218;1252;60445;-79
2023/10/17 02:25:21;;;;;;;;;;;;;;;;;;109208;1253;60325;-79
2023/10/17 02:27:48;;;;;;;;;;;;;;;;;;109220;1253;60405;-79
2023/10/17 02:30:14;;;;;;;;;;;;;;;;;;109181;1253;59896;-79
2023/10/17 02:32:44;;;;;;;;;;;;;;;;;;109198;1256;60497;-79
2023/10/17 02:35:15;;;;;;;;;;;;;;;;;;109210;1253;60024;-78
2023/10/17 02:37:43;;;;;;;;;;;;;;;;;;109195;1252;63348;-79
2023/10/17 02:40:10;;;;;;;;;;;;;;;;;;109223;1253;60034;-79
2023/10/17 02:42:39;;;;;;;;;;;;;;;;;;109182;1252;59772;-79
2023/10/17 02:45:07;;;;;;;;;;;;;;;;;;109190;1253;60267;-78
2023/10/17 02:47:35;;;;;;;;;;;;;;;;;;109296;1253;59891;-79
2023/10/17 02:50:19;;;;;;;;;;;;;;;;;;109305;1253;63394;-79
2023/10/17 02:52:51;;;;;;;;;;;;;;;;;;109238;1254;60437;-79
2023/10/17 02:55:23;;;;;;;;;;;;;;;;;;109251;1253;60518;-79
2023/10/17 02:57:50;;;;;;;;;;;;;;;;;;109265;1252;59863;-79
2023/10/17 03:00:23;;;;;;;;;;;;;;;;;;109252;1253;60237;-79
2023/10/17 03:02:50;;;;;;;;;;;;;;;;;;109261;1252;63839;-79
2023/10/17 03:05:18;;;;;;;;;;;;;;;;;;109267;1253;59986;-79
2023/10/17 03:07:49;;;;;;;;;;;;;;;;;;109274;1252;60638;-79
2023/10/17 03:10:20;;;;;;;;;;;;;;;;;;109242;1252;59819;-79
2023/10/17 03:13:01;;;;;;;;;;;;;;;;;;109270;1252;60265;-79
2023/10/17 03:15:29;;;;;;;;;;;;;;;;;;109255;1253;63014;-79
2023/10/17 03:18:00;;;;;;;;;;;;;;;;;;109253;1253;60332;-79
2023/10/17 03:20:36;;;;;;;;;;;;;;;;;;109261;1253;60625;-79
2023/10/17 03:23:03;;;;;;;;;;;;;;;;;;109207;1253;59844;-80
2023/10/17 03:25:37;;;;;;;;;;;;;;;;;;109258;1253;60150;-80
2023/10/17 03:28:04;;;;;;;;;;;;;;;;;;109240;1253;63017;-79
2023/10/17 03:30:31;;;;;;;;;;;;;;;;;;109210;1252;60292;-79
2023/10/17 03:35:28;;;;;;;;;;;;;;;;;;109272;1253;59877;-80
2023/10/17 03:37:55;;;;;;;;;;;;;;;;;;109253;1253;59605;-80
2023/10/17 03:40:34;;;;;;;;;;;;;;;;;;109233;1252;60434;-80
2023/10/17 03:43:11;;;;;;;;;;;;;;;;;;109240;1253;60079;-80
2023/10/17 03:45:43;;;;;;;;;;;;;;;;;;109206;1253;59990;-81
2023/10/17 03:48:15;;;;;;;;;;;;;;;;;;109257;1252;60977;-80
2023/10/17 03:53:29;;;;;;;;;;;;;;;;;;109317;1253;63636;-79
2023/10/17 03:55:55;;;;;;;;;;;;;;;;;;109317;1252;60104;-79
2023/10/17 04:00:51;;;;;;;;;;;;;;;;;;109304;1253;59800;-79
2023/10/17 04:03:23;;;;;;;;;;;;;;;;;;109245;1253;60487;-79
2023/10/17 04:05:50;;;;;;;;;;;;;;;;;;109281;1253;61648;-79
2023/10/17 04:08:18;;;;;;;;;;;;;;;;;;109244;1251;60140;-79
2023/10/17 04:11:07;;;;;;;;;;;;;;;;;;109246;1253;60089;-79
2023/10/17 04:13:37;;;;;;;;;;;;;;;;;;109158;1252;59833;-79
2023/10/17 04:16:10;;;;;;;;;;;;;;;;;;109286;1253;60278;-78
2023/10/17 04:18:37;;;;;;;;;;;;;;;;;;109281;1253;63545;-78
2023/10/17 04:21:17;;;;;;;;;;;;;;;;;;109209;1252;60532;-79
2023/10/17 04:23:44;;;;;;;;;;;;;;;;;;109205;1253;60006;-79
2023/10/17 04:26:19;;;;;;;;;;;;;;;;;;109176;1253;60627;-79
2023/10/17 04:28:52;;;;;;;;;;;;;;;;;;109188;1253;59714;-79
2023/10/17 04:31:25;;;;;;;;;;;;;;;;;;109187;1257;62444;-79
2023/10/17 04:33:56;;;;;;;;;;;;;;;;;;109200;1253;59864;-78
2023/10/17 04:36:22;;;;;;;;;;;;;;;;;;109181;1253;60417;-79
2023/10/17 04:39:10;;;;;;;;;;;;;;;;;;109188;1253;60232;-78
2023/10/17 04:44:21;;;;;;;;;;;;;;;;;;109227;1253;62896;-79
2023/10/17 04:46:50;;;;;;;;;;;;;;;;;;109263;1253;60515;-79
2023/10/17 04:49:20;;;;;;;;;;;;;;;;;;109244;1253;59785;-79
2023/10/17 04:51:53;;;;;;;;;;;;;;;;;;109244;1252;60966;-79
2023/10/17 04:54:31;;;;;;;;;;;;;;;;;;109157;1253;60226;-79
2023/10/17 04:57:00;;;;;;;;;;;;;;;;;;109202;1253;62456;-79
2023/10/17 05:07:30;;;;;;;;;;;;;;;;;;109392;1253;59843;-79
2023/10/17 06:18:49;;;;;;;;;;;;;;;;;;109303;1252;63516;-79
2023/10/17 06:21:19;;;;;;;;;;;;;;;;;;109196;1254;59852;-80
2023/10/17 06:34:27;;;;;;;;;;;;;;;;;;109244;1254;60144;-79
2023/10/17 06:36:59;;;;;;;;;;;;;;;;;;109187;1255;60402;-79
2023/10/17 06:39:36;;;;;;;;;;;;;;;;;;109149;1253;59897;-78
2023/10/17 06:42:14;;;;;;;;;;;;;;;;;;109158;1252;59876;-79
2023/10/17 06:44:51;;;;;;;;;;;;;;;;;;109190;1251;63459;-78
2023/10/17 06:47:18;;;;;;;;;;;;;;;;;;109132;1251;60269;-79
2023/10/17 06:54:41;;;;;;;;;;;;;;;;;;109215;1251;59898;-79
2023/10/17 06:57:18;;;;;;;;;;;;;;;;;;109200;1254;62785;-79
2023/10/17 06:59:45;;;;;;;;;;;;;;;;;;109319;1251;60477;-79
2023/10/17 07:02:28;;;;;;;;;;;;;;;;;;109211;1254;60203;-79
2023/10/17 07:04:55;;;;;;;;;;;;;;;;;;109207;1251;59917;-79
2023/10/17 07:07:31;;;;;;;;;;;;;;;;;;109240;1251;60345;-79
2023/10/17 07:10:16;;;;;;;;;;;;;;;;;;109218;1253;61373;-79
2023/10/17 07:12:47;;;;;;;;;;;;;;;;;;109215;1254;60195;-79
2023/10/17 07:15:20;;;;;;;;;;;;;;;;;;109257;1253;59796;-79
2023/10/17 07:17:54;;;;;;;;;;;;;;;;;;109187;1252;59959;-79
2023/10/17 07:23:15;;;;;;;;;;;;;;;;;;109248;1252;63801;-79
2023/10/17 07:25:43;;;;;;;;;;;;;;;;;;109201;1253;59801;-79
2023/10/17 07:28:10;;;;;;;;;;;;;;;;;;109199;1253;60228;-79
2023/10/17 07:30:49;;;;;;;;;;;;;;;;;;109237;1254;59836;-79
2023/10/17 07:33:18;;;;;;;;;;;;;;;;;;109248;1253;60023;-79
2023/10/17 07:35:44;;;;;;;;;;;;;;;;;;109238;1254;62502;-79
2023/10/17 07:38:14;;;;;;;;;;;;;;;;;;109074;1253;60451;-79
2023/10/17 07:43:09;;;;;;;;;;;;;;;;;;109164;1253;60659;-79
2023/10/17 07:45:39;;;;;;;;;;;;;;;;;;109216;1253;60448;-79
2023/10/17 07:48:19;;;;;;;;;;;;;;;;;;109179;1254;62903;-79
2023/10/17 07:50:46;;;;;;;;;;;;;;;;;;109270;1253;59859;-79
2023/10/17 07:53:19;;;;;;;;;;;;;;;;;;109211;1254;60505;-79
2023/10/17 07:55:47;;;;;;;;;;;;;;;;;;109253;1252;60202;-79
2023/10/17 07:58:17;;;;;;;;;;;;;;;;;;109199;1253;60035;-79
2023/10/17 08:00:44;;;;;;;;;;;;;;;;;;109237;1253;63408;-79
2023/10/17 08:03:14;;;;;;;;;;;;;;;;;;82869;1254;1003287;-79
2023/10/17 08:08:33;;;;;;;;;;;;;;;;;;53974;1257;1045634;-79
2023/10/17 08:11:00;;;;;;;;;;;;;;;;;;54046;1252;1046687;-79
2023/10/17 08:13:28;;;;;;;;;;;;;;;;;;53978;1257;1003601;-80
2023/10/17 08:15:55;;;;;;;;;;;;;;;;;;54060;1252;1060808;-80
2023/10/17 08:18:22;;;;;;;;;;;;;;;;;;53920;1252;1003345;-79
2023/10/17 08:23:29;;;;;;;;;;;;;;;;;;53981;1252;1056595;-79
2023/10/17 08:25:59;;;;;;;;;;;;;;;;;;54056;1251;1003466;-80
2023/10/17 08:31:19;;;;;;;;;;;;;;;;;;54026;1256;1056608;-80
2023/10/17 08:33:47;;;;;;;;;;;;;;;;;;53994;1253;1057263;-80
2023/10/17 08:36:14;;;;;;;;;;;;;;;;;;54019;1253;1003454;-80
2023/10/17 08:38:40;;;;;;;;;;;;;;;;;;53999;1254;1058038;-80
2023/10/17 08:41:07;;;;;;;;;;;;;;;;;;54001;1254;1003741;-80
2023/10/17 08:43:35;;;;;;;;;;;;;;;;;;54031;1254;1038438;-80
2023/10/17 08:46:07;;;;;;;;;;;;;;;;;;54025;1254;1003700;-80
2023/10/17 08:48:35;;;;;;;;;;;;;;;;;;54012;1254;1038521;-80
2023/10/17 08:51:06;;;;;;;;;;;;;;;;;;54038;1253;1003359;-80
2023/10/17 08:53:33;;;;;;;;;;;;;;;;;;54006;1254;1039574;-81
2023/10/17 08:56:02;;;;;;;;;;;;;;;;;;53992;1253;1003277;-80
2023/10/17 08:58:36;;;;;;;;;;;;;;;;;;54082;1252;1046255;-80
2023/10/17 09:01:16;;;;;;;;;;;;;;;;;;53941;1253;1046475;-79
2023/10/17 09:03:49;;;;;;;;;;;;;;;;;;54030;1252;1045513;-79
2023/10/17 09:11:30;;;;;;;;;;;;;;;;;;54101;1252;1046281;-79
2023/10/17 09:14:17;;;;;;;;;;;;;;;;;;54052;1252;1003455;-80
2023/10/17 09:16:48;;;;;;;;;;;;;;;;;;54037;1253;1060531;-79
2023/10/17 09:19:16;;;;;;;;;;;;;;;;;;54054;1251;1061803;-79
2023/10/17 09:21:43;;;;;;;;;;;;;;;;;;54052;1253;1003222;-79
2023/10/17 09:24:10;;;;;;;;;;;;;;;;;;54031;1253;1058136;-79
2023/10/17 09:26:37;;;;;;;;;;;;;;;;;;53990;1251;1003515;-79
2023/10/17 09:29:05;;;;;;;;;;;;;;;;;;53999;1251;1057618;-80
2023/10/17 09:31:32;;;;;;;;;;;;;;;;;;54026;1253;1003460;-80
2023/10/17 09:33:59;;;;;;;;;;;;;;;;;;54034;1252;1039649;-80
2023/10/17 09:36:25;;;;;;;;;;;;;;;;;;54034;1252;1003811;-80
2023/10/17 09:38:54;;;;;;;;;;;;;;;;;;54031;1251;1045445;-79
2023/10/17 09:41:21;;;;;;;;;;;;;;;;;;54054;1252;1003519;-79
2023/10/17 09:43:48;;;;;;;;;;;;;;;;;;54070;1253;1003386;-79
2023/10/17 09:46:14;;;;;;;;;;;;;;;;;;54053;1251;1061070;-79
2023/10/17 09:48:44;;;;;;;;;;;;;;;;;;54075;1253;1003593;-80
2023/10/17 09:51:10;;;;;;;;;;;;;;;;;;54058;1253;1057087;-79
2023/10/17 09:53:37;;;;;;;;;;;;;;;;;;54050;1253;1003376;-80
2023/10/17 09:56:04;;;;;;;;;;;;;;;;;;54035;1253;1058494;-80
2023/10/17 09:58:30;;;;;;;;;;;;;;;;;;53974;1255;1003596;-79
2023/10/17 10:01:00;;;;;;;;;;;;;;;;;;54025;1252;1038456;-79
2023/10/17 10:03:28;;;;;;;;;;;;;;;;;;53923;1256;1003580;-79
2023/10/17 10:05:54;;;;;;;;;;;;;;;;;;53982;1251;1003530;-79
2023/10/17 10:08:21;;;;;;;;;;;;;;;;;;54026;1251;1046429;-79
2023/10/17 10:10:48;;;;;;;;;;;;;;;;;;54022;1253;1003315;-80
2023/10/17 10:13:15;;;;;;;;;;;;;;;;;;53997;1253;1061458;-79
2023/10/17 10:15:41;;;;;;;;;;;;;;;;;;54005;1255;1003821;-80
2023/10/17 10:18:08;;;;;;;;;;;;;;;;;;53986;1251;1058212;-80
2023/10/17 10:20:35;;;;;;;;;;;;;;;;;;53995;1254;1003618;-80
2023/10/17 10:23:01;;;;;;;;;;;;;;;;;;54027;1254;1057509;-80
2023/10/17 10:25:28;;;;;;;;;;;;;;;;;;54012;1252;1003636;-79
2023/10/17 10:27:54;;;;;;;;;;;;;;;;;;53975;1252;1039255;-79
2023/10/17 10:30:21;;;;;;;;;;;;;;;;;;54040;1253;1003341;-79
2023/10/17 10:32:50;;;;;;;;;;;;;;;;;;53996;1253;1045825;-79
2023/10/17 10:35:16;;;;;;;;;;;;;;;;;;54060;1251;1003432;-79
2023/10/17 10:37:42;;;;;;;;;;;;;;;;;;54047;1252;1003662;-80
2023/10/17 10:40:16;;;;;;;;;;;;;;;;;;54000;1251;1061273;-79
2023/10/17 10:42:43;;;;;;;;;;;;;;;;;;54068;1252;1061802;-79
2023/10/17 10:45:09;;;;;;;;;;;;;;;;;;54053;1251;1003627;-80
2023/10/17 10:47:36;;;;;;;;;;;;;;;;;;54039;1252;1056890;-80
2023/10/17 10:50:05;;;;;;;;;;;;;;;;;;54011;1253;1003959;-79
2023/10/17 10:52:32;;;;;;;;;;;;;;;;;;53986;1253;1059048;-80
2023/10/17 10:55:01;;;;;;;;;;;;;;;;;;54006;1253;1003643;-80
2023/10/17 10:57:28;;;;;;;;;;;;;;;;;;54059;1252;1038804;-80
2023/10/17 10:59:55;;;;;;;;;;;;;;;;;;54003;1252;1003372;-80
2023/10/17 11:02:21;;;;;;;;;;;;;;;;;;54044;1252;1044982;-80
2023/10/17 11:04:48;;;;;;;;;;;;;;;;;;54095;1252;1003292;-80
2023/10/17 11:07:14;;;;;;;;;;;;;;;;;;54021;1255;1061754;-80
2023/10/17 11:09:41;;;;;;;;;;;;;;;;;;54051;1252;1003282;-79
2023/10/17 11:12:07;;;;;;;;;;;;;;;;;;54025;1253;1057600;-79
2023/10/17 11:14:34;;;;;;;;;;;;;;;;;;54114;1251;1003278;-79
2023/10/17 11:17:00;;;;;;;;;;;;;;;;;;54038;1252;1058409;-80
2023/10/17 11:19:28;;;;;;;;;;;;;;;;;;54006;1252;1003388;-80
2023/10/17 11:21:57;;;;;;;;;;;;;;;;;;53965;1252;1038597;-80
2023/10/17 11:24:25;;;;;;;;;;;;;;;;;;54054;1253;1003735;-80
2023/10/17 11:26:52;;;;;;;;;;;;;;;;;;54022;1252;1003818;-80
2023/10/17 11:29:18;;;;;;;;;;;;;;;;;;54018;1253;1045307;-79
2023/10/17 11:31:45;;;;;;;;;;;;;;;;;;54005;1252;1003299;-79
2023/10/17 11:34:14;;;;;;;;;;;;;;;;;;54056;1252;1060861;-80
2023/10/17 11:36:45;;;;;;;;;;;;;;;;;;54028;1252;1003374;-80
2023/10/17 11:39:15;;;;;;;;;;;;;;;;;;53998;1253;1061883;-79
2023/10/17 11:41:41;;;;;;;;;;;;;;;;;;54062;1252;1060222;-80
2023/10/17 11:44:09;;;;;;;;;;;;;;;;;;54030;1253;1003487;-79
2023/10/17 11:46:37;;;;;;;;;;;;;;;;;;54016;1252;1056774;-79
2023/10/17 11:49:04;;;;;;;;;;;;;;;;;;53972;1252;1003485;-80
2023/10/17 11:51:30;;;;;;;;;;;;;;;;;;54004;1252;1003561;-82
2023/10/17 11:53:57;;;;;;;;;;;;;;;;;;53933;1252;1058843;-80
2023/10/17 11:56:23;;;;;;;;;;;;;;;;;;54045;1252;1004233;-80
2023/10/17 11:58:50;;;;;;;;;;;;;;;;;;54027;1252;1038566;-79
2023/10/17 12:01:16;;;;;;;;;;;;;;;;;;54000;1253;1003590;-80
2023/10/17 12:03:43;;;;;;;;;;;;;;;;;;54009;1252;1045824;-79
2023/10/17 12:06:09;;;;;;;;;;;;;;;;;;54025;1253;1003554;-80
2023/10/17 12:08:36;;;;;;;;;;;;;;;;;;54046;1252;1061144;-79
2023/10/17 12:11:03;;;;;;;;;;;;;;;;;;53910;1256;1003699;-80
2023/10/17 12:13:30;;;;;;;;;;;;;;;;;;54032;1252;1056252;-80
2023/10/17 12:15:59;;;;;;;;;;;;;;;;;;54004;1255;1003640;-80
2023/10/17 12:18:25;;;;;;;;;;;;;;;;;;53982;1252;1059618;-80
2023/10/17 12:20:55;;;;;;;;;;;;;;;;;;54029;1252;1003494;-79
2023/10/17 12:23:21;;;;;;;;;;;;;;;;;;54017;1253;1037831;-80
2023/10/17 12:25:48;;;;;;;;;;;;;;;;;;54075;1252;1003689;-80
2023/10/17 12:28:14;;;;;;;;;;;;;;;;;;54045;1256;1046427;-79
2023/10/17 12:30:41;;;;;;;;;;;;;;;;;;54035;1252;1003291;-80
2023/10/17 12:33:08;;;;;;;;;;;;;;;;;;54035;1251;1061092;-79
2023/10/17 12:35:36;;;;;;;;;;;;;;;;;;54039;1252;1003430;-80
2023/10/17 12:38:14;;;;;;;;;;;;;;;;;;54041;1252;1056055;-80
2023/10/17 12:40:40;;;;;;;;;;;;;;;;;;54076;1253;1057618;-80
2023/10/17 12:43:08;;;;;;;;;;;;;;;;;;54085;1252;1003348;-80
2023/10/17 12:45:36;;;;;;;;;;;;;;;;;;54033;1255;1058209;-79
2023/10/17 12:48:03;;;;;;;;;;;;;;;;;;54048;1253;1003687;-80
2023/10/17 12:50:29;;;;;;;;;;;;;;;;;;54012;1252;1003587;-79
2023/10/17 12:52:56;;;;;;;;;;;;;;;;;;54040;1252;1039252;-80
2023/10/17 12:55:22;;;;;;;;;;;;;;;;;;54029;1252;1003260;-80
2023/10/17 12:57:49;;;;;;;;;;;;;;;;;;54015;1251;1045915;-79
2023/10/17 13:00:15;;;;;;;;;;;;;;;;;;53990;1252;1003674;-80
2023/10/17 13:02:42;;;;;;;;;;;;;;;;;;54055;1251;1061284;-80
2023/10/17 13:05:09;;;;;;;;;;;;;;;;;;54041;1255;1003349;-79
2023/10/17 13:07:36;;;;;;;;;;;;;;;;;;54042;1252;1056187;-79
2023/10/17 13:10:02;;;;;;;;;;;;;;;;;;54012;1255;1003348;-79
2023/10/17 13:12:29;;;;;;;;;;;;;;;;;;53523;1253;1480720;-80
2023/10/17 13:14:56;;;;;;;;;;;;;;;;;;54004;1252;1003496;-79
2023/10/17 13:17:24;;;;;;;;;;;;;;;;;;54012;1252;1039003;-80
2023/10/17 13:19:51;;;;;;;;;;;;;;;;;;54010;1252;1003243;-79
2023/10/17 13:22:19;;;;;;;;;;;;;;;;;;54051;1252;1045047;-80
2023/10/17 13:24:48;;;;;;;;;;;;;;;;;;54022;1252;1003481;-79
2023/10/17 13:27:15;;;;;;;;;;;;;;;;;;54063;1250;1004685;-79
2023/10/17 13:29:42;;;;;;;;;;;;;;;;;;54059;1252;1003250;-79
2023/10/17 13:32:08;;;;;;;;;;;;;;;;;;53976;1252;1061944;-79
2023/10/17 13:34:35;;;;;;;;;;;;;;;;;;54018;1252;1003330;-80
2023/10/17 13:37:04;;;;;;;;;;;;;;;;;;53986;1255;1057489;-79
2023/10/17 13:39:30;;;;;;;;;;;;;;;;;;54011;1252;1003426;-79
2023/10/17 13:41:57;;;;;;;;;;;;;;;;;;54046;1251;1003484;-80
2023/10/17 13:44:23;;;;;;;;;;;;;;;;;;53996;1253;1058195;-79
2023/10/17 13:46:51;;;;;;;;;;;;;;;;;;54014;1252;1003419;-79
2023/10/17 13:49:17;;;;;;;;;;;;;;;;;;53993;1251;1038675;-80
2023/10/17 13:51:47;;;;;;;;;;;;;;;;;;53998;1252;1003779;-79
2023/10/17 13:54:13;;;;;;;;;;;;;;;;;;54031;1252;1045841;-79
2023/10/17 13:56:40;;;;;;;;;;;;;;;;;;54011;1251;1003690;-80
2023/10/17 13:59:09;;;;;;;;;;;;;;;;;;53907;1253;1061959;-79
2023/10/17 14:01:41;;;;;;;;;;;;;;;;;;54023;1252;1003628;-80
2023/10/17 14:04:11;;;;;;;;;;;;;;;;;;54081;1252;1060978;-79
2023/10/17 14:06:42;;;;;;;;;;;;;;;;;;54051;1252;1003368;-80
2023/10/17 14:09:14;;;;;;;;;;;;;;;;;;54019;1253;1061684;-80
2023/10/17 14:11:41;;;;;;;;;;;;;;;;;;54069;1252;1061445;-80
2023/10/17 14:14:08;;;;;;;;;;;;;;;;;;54116;1252;1003478;-80
2023/10/17 14:16:40;;;;;;;;;;;;;;;;;;54095;1252;1056106;-80
2023/10/17 14:19:13;;;;;;;;;;;;;;;;;;54069;1251;1057350;-79
2023/10/17 14:21:41;;;;;;;;;;;;;;;;;;54109;1252;1057076;-79
2023/10/17 14:24:10;;;;;;;;;;;;;;;;;;54054;1256;1003463;-79
2023/10/17 14:26:37;;;;;;;;;;;;;;;;;;54091;1252;1058001;-79
2023/10/17 14:29:05;;;;;;;;;;;;;;;;;;54065;1251;1003386;-79
2023/10/17 14:31:31;;;;;;;;;;;;;;;;;;54052;1252;1037784;-79
2023/10/17 14:33:59;;;;;;;;;;;;;;;;;;54059;1252;1003394;-80
2023/10/17 14:36:27;;;;;;;;;;;;;;;;;;54021;1252;1045274;-79
2023/10/17 14:38:53;;;;;;;;;;;;;;;;;;54080;1252;1003610;-79
2023/10/17 14:41:20;;;;;;;;;;;;;;;;;;54088;1252;1061504;-79
2023/10/17 14:43:49;;;;;;;;;;;;;;;;;;54059;1252;1003618;-79
2023/10/17 14:46:16;;;;;;;;;;;;;;;;;;54127;1251;1057644;-79
2023/10/17 14:48:44;;;;;;;;;;;;;;;;;;54084;1252;1003359;-79
2023/10/17 14:51:12;;;;;;;;;;;;;;;;;;54081;1251;1057185;-79
2023/10/17 14:53:42;;;;;;;;;;;;;;;;;;54077;1252;1003249;-79
2023/10/17 14:56:12;;;;;;;;;;;;;;;;;;54090;1252;1038781;-79
2023/10/17 14:58:38;;;;;;;;;;;;;;;;;;54041;1254;1003404;-79
2023/10/17 15:01:05;;;;;;;;;;;;;;;;;;54064;1252;1003323;-79
2023/10/17 15:03:32;;;;;;;;;;;;;;;;;;54079;1252;1046366;-80
2023/10/17 15:05:59;;;;;;;;;;;;;;;;;;54070;1252;1003609;-79
2023/10/17 15:08:25;;;;;;;;;;;;;;;;;;54060;1252;1061002;-79
2023/10/17 15:10:52;;;;;;;;;;;;;;;;;;54069;1252;1003670;-79
2023/10/17 15:13:19;;;;;;;;;;;;;;;;;;53996;1255;1056618;-79
2023/10/17 15:15:46;;;;;;;;;;;;;;;;;;54041;1253;1003333;-79
2023/10/17 15:18:12;;;;;;;;;;;;;;;;;;54020;1252;1058331;-79
2023/10/17 15:20:39;;;;;;;;;;;;;;;;;;54046;1252;1003285;-79
2023/10/17 15:23:05;;;;;;;;;;;;;;;;;;54028;1252;1038077;-79
2023/10/17 15:25:32;;;;;;;;;;;;;;;;;;54028;1253;1003895;-79
2023/10/17 15:27:59;;;;;;;;;;;;;;;;;;54021;1252;1044937;-79
2023/10/17 15:30:25;;;;;;;;;;;;;;;;;;54025;1252;1003885;-79
2023/10/17 15:32:52;;;;;;;;;;;;;;;;;;54074;1252;1060686;-79
2023/10/17 15:35:18;;;;;;;;;;;;;;;;;;54035;1251;1003423;-79
2023/10/17 15:37:48;;;;;;;;;;;;;;;;;;54089;1251;1056825;-79
2023/10/17 15:40:16;;;;;;;;;;;;;;;;;;54102;1251;1003321;-79
2023/10/17 15:42:43;;;;;;;;;;;;;;;;;;54112;1253;1003408;-80
2023/10/17 15:45:11;;;;;;;;;;;;;;;;;;54040;1252;1057419;-80
2023/10/17 15:47:38;;;;;;;;;;;;;;;;;;54039;1252;1003419;-79
2023/10/17 15:50:04;;;;;;;;;;;;;;;;;;54022;1252;1038704;-79
2023/10/17 15:52:31;;;;;;;;;;;;;;;;;;54021;1252;1003805;-79
2023/10/17 15:54:57;;;;;;;;;;;;;;;;;;54100;1252;1046110;-79
2023/10/17 15:57:25;;;;;;;;;;;;;;;;;;54146;1253;1003556;-79
2023/10/17 15:59:52;;;;;;;;;;;;;;;;;;54041;1252;1061660;-79
2023/10/17 16:02:18;;;;;;;;;;;;;;;;;;54000;1252;1003354;-79
2023/10/17 16:04:44;;;;;;;;;;;;;;;;;;54048;1252;1056848;-79
2023/10/17 16:07:11;;;;;;;;;;;;;;;;;;54004;1253;1003565;-79
2023/10/17 16:09:42;;;;;;;;;;;;;;;;;;54011;1253;1058449;-79
2023/10/17 16:12:09;;;;;;;;;;;;;;;;;;53991;1253;1058386;-79
2023/10/17 16:14:37;;;;;;;;;;;;;;;;;;54007;1252;1003261;-79
2023/10/17 16:17:05;;;;;;;;;;;;;;;;;;53997;1255;1039112;-79
2023/10/17 16:19:33;;;;;;;;;;;;;;;;;;54018;1252;1003847;-79
2023/10/17 16:22:00;;;;;;;;;;;;;;;;;;54075;1253;1045143;-79
2023/10/17 16:24:27;;;;;;;;;;;;;;;;;;54070;1252;1003661;-79
2023/10/17 16:26:53;;;;;;;;;;;;;;;;;;54119;1252;1060270;-79
2023/10/17 16:29:20;;;;;;;;;;;;;;;;;;54022;1253;1003638;-80
2023/10/17 16:31:50;;;;;;;;;;;;;;;;;;54078;1252;1057560;-79
2023/10/17 16:34:16;;;;;;;;;;;;;;;;;;54079;1251;1003231;-79
2023/10/17 16:36:43;;;;;;;;;;;;;;;;;;54075;1252;1003567;-79
2023/10/17 16:39:09;;;;;;;;;;;;;;;;;;53996;1255;1058307;-79
2023/10/17 16:41:35;;;;;;;;;;;;;;;;;;54053;1253;1003435;-79
2023/10/17 16:44:04;;;;;;;;;;;;;;;;;;54025;1255;1038676;-79
2023/10/17 16:46:31;;;;;;;;;;;;;;;;;;54013;1253;1003348;-79
2023/10/17 16:49:00;;;;;;;;;;;;;;;;;;54031;1251;1003618;-79
2023/10/17 16:51:28;;;;;;;;;;;;;;;;;;54032;1252;1045865;-79
2023/10/17 16:53:55;;;;;;;;;;;;;;;;;;54079;1252;1003672;-79
2023/10/17 16:56:22;;;;;;;;;;;;;;;;;;54054;1253;1062127;-79
2023/10/17 16:58:48;;;;;;;;;;;;;;;;;;54083;1252;1003649;-79
2023/10/17 17:01:17;;;;;;;;;;;;;;;;;;54035;1252;1057121;-79
2023/10/17 17:03:44;;;;;;;;;;;;;;;;;;54064;1252;1003357;-79
2023/10/17 17:06:11;;;;;;;;;;;;;;;;;;54037;1253;1003706;-79
2023/10/17 17:08:38;;;;;;;;;;;;;;;;;;54028;1253;1058614;-79
2023/10/17 17:11:04;;;;;;;;;;;;;;;;;;54025;1255;1003432;-79
2023/10/17 17:13:31;;;;;;;;;;;;;;;;;;54055;1253;1038444;-79
2023/10/17 17:15:58;;;;;;;;;;;;;;;;;;54032;1252;1003312;-79
2023/10/17 17:18:24;;;;;;;;;;;;;;;;;;54010;1253;1045511;-79
2023/10/17 17:20:52;;;;;;;;;;;;;;;;;;54071;1252;1003311;-79
2023/10/17 17:23:19;;;;;;;;;;;;;;;;;;54013;1253;1060451;-79
2023/10/17 17:25:46;;;;;;;;;;;;;;;;;;54015;1253;1003444;-79
2023/10/17 17:28:12;;;;;;;;;;;;;;;;;;53995;1256;1057755;-79
2023/10/17 17:30:40;;;;;;;;;;;;;;;;;;54036;1253;1003264;-78
2023/10/17 17:33:07;;;;;;;;;;;;;;;;;;54005;1253;1057801;-79
2023/10/17 17:35:33;;;;;;;;;;;;;;;;;;53978;1257;1003574;-79
2023/10/17 17:37:59;;;;;;;;;;;;;;;;;;54018;1253;1038521;-79
2023/10/17 17:40:26;;;;;;;;;;;;;;;;;;53998;1252;1003558;-79
2023/10/17 17:42:53;;;;;;;;;;;;;;;;;;54052;1252;1045896;-79
2023/10/17 17:45:19;;;;;;;;;;;;;;;;;;54031;1253;1003597;-79
2023/10/17 17:47:46;;;;;;;;;;;;;;;;;;54057;1251;1061298;-79
2023/10/17 17:50:14;;;;;;;;;;;;;;;;;;54044;1252;1003903;-79
2023/10/17 17:52:40;;;;;;;;;;;;;;;;;;54078;1252;1056019;-79
2023/10/17 17:55:12;;;;;;;;;;;;;;;;;;53997;1252;1003554;-79
2023/10/17 17:57:38;;;;;;;;;;;;;;;;;;54009;1253;1058284;-79
2023/10/17 18:00:05;;;;;;;;;;;;;;;;;;53974;1252;1003471;-79
2023/10/17 18:02:32;;;;;;;;;;;;;;;;;;54014;1252;1039369;-79
2023/10/17 18:04:59;;;;;;;;;;;;;;;;;;54017;1252;1003242;-78
2023/10/17 18:07:25;;;;;;;;;;;;;;;;;;54076;1251;1045157;-79
2023/10/17 18:09:52;;;;;;;;;;;;;;;;;;54035;1253;1003702;-79
2023/10/17 18:12:18;;;;;;;;;;;;;;;;;;54041;1252;1061064;-79
2023/10/17 18:14:45;;;;;;;;;;;;;;;;;;54054;1252;1003465;-79
2023/10/17 18:17:13;;;;;;;;;;;;;;;;;;54029;1255;1056801;-79
2023/10/17 18:19:40;;;;;;;;;;;;;;;;;;54059;1253;1003300;-79
2023/10/17 18:22:06;;;;;;;;;;;;;;;;;;54034;1252;1003419;-79
2023/10/17 18:24:35;;;;;;;;;;;;;;;;;;54014;1253;1057436;-79
2023/10/17 18:27:02;;;;;;;;;;;;;;;;;;54014;1253;1004084;-79
2023/10/17 18:29:29;;;;;;;;;;;;;;;;;;54021;1253;1003587;-79
2023/10/17 18:31:56;;;;;;;;;;;;;;;;;;54024;1252;1038665;-79
2023/10/17 18:34:22;;;;;;;;;;;;;;;;;;54077;1253;1003303;-79
2023/10/17 18:36:49;;;;;;;;;;;;;;;;;;54039;1255;1045055;-80
2023/10/17 18:39:16;;;;;;;;;;;;;;;;;;54017;1255;1003511;-79